createdAt,value
2022-09-26T00:04:45.992Z,100450.28
2022-09-26T00:09:47.477Z,100443.03
2022-09-26T00:14:49.184Z,100430.78
2022-09-26T00:19:50.710Z,100431.91
2022-09-26T00:24:52.571Z,100419.16
2022-09-26T00:29:54.227Z,100416.97
2022-09-26T00:34:55.800Z,100404.94
2022-09-26T00:39:57.543Z,100406.50
2022-09-26T00:44:59.974Z,100403.38
2022-09-26T00:50:07.290Z,100398.84
2022-09-26T00:55:11.607Z,100388.03
2022-09-26T01:00:14.962Z,100377.56
2022-09-26T01:05:22.330Z,100361.34
2022-09-26T01:10:24.105Z,100355.97
2022-09-26T01:15:25.632Z,100354.78
2022-09-26T01:20:56.548Z,100349.69
2022-09-26T01:26:22.340Z,100340.75
2022-09-26T01:31:49.155Z,100337.88
2022-09-26T01:37:11.439Z,100341.53
2022-09-26T01:42:45.779Z,100335.41
2022-09-26T01:48:12.522Z,100334.63
2022-09-26T01:53:34.420Z,100321.75
2022-09-26T01:58:54.242Z,100326.63
2022-09-26T02:04:02.015Z,100315.72
2022-09-26T02:09:15.066Z,100308.41
2022-09-26T02:14:25.157Z,100302.19
2022-09-26T02:19:30.633Z,100287.72
2022-09-26T02:24:32.526Z,100282.06
2022-09-26T02:29:34.391Z,100275.63
2022-09-26T02:34:36.529Z,100269.19
2022-09-26T02:39:38.235Z,100260.13
2022-09-26T02:44:50.251Z,100254.28
2022-09-26T02:50:19.892Z,100251.50
2022-09-26T02:55:30.725Z,100234.38
2022-09-26T03:00:47.802Z,100230.75
2022-09-26T03:05:54.851Z,100219.09
2022-09-26T03:11:00.981Z,100207.00
2022-09-26T03:16:03.554Z,100200.75
2022-09-26T03:21:07.332Z,100200.53
2022-09-26T03:26:12.757Z,100184.34
2022-09-26T03:31:24.256Z,100169.63
2022-09-26T03:36:55.083Z,100166.59
2022-09-26T03:41:58.009Z,100149.22
2022-09-26T03:47:06.225Z,100146.97
2022-09-26T03:52:14.282Z,100143.16
2022-09-26T03:57:17.985Z,100130.81
2022-09-26T04:02:28.113Z,100114.50
2022-09-26T04:07:45.559Z,100109.25
2022-09-26T04:12:47.108Z,100102.34
2022-09-26T04:17:50.565Z,100100.63
2022-09-26T04:22:57.645Z,100080.78
2022-09-26T04:27:59.154Z,100071.34
2022-09-26T04:33:01.386Z,100056.63
2022-09-26T04:38:08.612Z,100050.34
2022-09-26T04:43:11.170Z,100050.34
2022-09-26T04:48:12.734Z,100035.22
2022-09-26T04:53:44.085Z,100031.19
2022-09-26T04:59:05.993Z,100031.41
2022-09-26T05:04:17.532Z,100025.13
2022-09-26T05:09:19.131Z,100031.97
2022-09-26T05:14:27.908Z,100014.66
2022-09-26T05:19:29.496Z,100022.91
2022-09-26T05:24:49.311Z,100008.19
2022-09-26T05:29:51.765Z,100003.38
2022-09-26T05:34:53.324Z,99998.72
2022-09-26T05:39:56.518Z,99992.06
2022-09-26T05:45:01.703Z,99996.13
2022-09-26T05:50:04.348Z,99983.00
2022-09-26T05:55:06.420Z,99985.84
2022-09-26T06:00:36.693Z,99983.38
2022-09-26T06:05:38.430Z,99976.34
2022-09-26T06:10:50.844Z,99967.22
2022-09-26T06:15:53.210Z,99959.31
2022-09-26T06:20:55.262Z,99947.59
2022-09-26T06:25:57.953Z,99942.47
2022-09-26T06:30:59.879Z,99938.63
2022-09-26T06:36:24.908Z,99935.88
2022-09-26T06:41:26.770Z,99927.69
2022-09-26T06:46:28.936Z,99913.63
2022-09-26T06:51:32.932Z,99904.63
2022-09-26T06:56:34.477Z,99904.31
2022-09-26T07:01:36.410Z,99899.13
2022-09-26T07:06:44.565Z,99892.53
2022-09-26T07:12:12.895Z,99877.59
2022-09-26T07:17:18.584Z,99876.97
2022-09-26T07:22:39.153Z,99875.81
2022-09-26T07:27:41.325Z,99870.97
2022-09-26T07:32:43.204Z,99865.63
2022-09-26T07:37:58.877Z,99855.69
2022-09-26T07:43:18.963Z,99850.25
2022-09-26T07:48:23.585Z,99845.94
2022-09-26T07:53:43.568Z,99847.44
2022-09-26T07:59:05.047Z,99840.22
2022-09-26T08:04:26.811Z,99837.38
2022-09-26T08:09:28.965Z,99838.72
2022-09-26T08:14:49.642Z,99833.09
2022-09-26T08:20:05.127Z,99831.69
2022-09-26T08:25:07.595Z,99836.22
2022-09-26T08:30:15.186Z,99822.53
2022-09-26T08:35:16.799Z,99832.81
2022-09-26T08:40:26.553Z,99823.53
2022-09-26T08:46:11.619Z,99814.31
2022-09-26T08:51:42.839Z,99811.72
2022-09-26T08:56:53.310Z,99816.50
2022-09-26T09:02:04.253Z,99805.28
2022-09-26T09:07:21.978Z,99812.25
2022-09-26T09:12:59.081Z,99812.66
2022-09-26T09:19:18.652Z,99817.75
2022-09-26T09:24:46.413Z,99806.91
2022-09-26T09:30:17.096Z,99803.84
2022-09-26T09:36:05.321Z,99792.53
2022-09-26T09:41:25.429Z,99789.06
2022-09-26T09:46:27.351Z,99780.47
2022-09-26T09:52:00.251Z,99776.16
2022-09-26T09:57:23.095Z,99762.72
2022-09-26T10:02:43.632Z,99745.44
2022-09-26T10:07:55.081Z,99741.34
2022-09-26T10:13:16.275Z,99732.72
2022-09-26T10:18:57.167Z,99727.03
2022-09-26T10:24:03.572Z,99718.03
2022-09-26T10:29:29.953Z,99727.41
2022-09-26T10:34:34.626Z,99713.16
2022-09-26T10:39:39.353Z,99710.00
2022-09-26T10:44:41.530Z,99705.00
2022-09-26T10:49:57.583Z,99698.84
2022-09-26T10:55:32.798Z,99689.94
2022-09-26T11:00:34.521Z,99682.41
2022-09-26T11:05:38.694Z,99669.59
2022-09-26T11:10:51.815Z,99662.53
2022-09-26T11:16:12.173Z,99644.97
2022-09-26T11:21:38.235Z,99639.72
2022-09-26T11:26:52.463Z,99618.25
2022-09-26T11:32:00.048Z,99612.00
2022-09-26T11:37:34.235Z,99604.28
2022-09-26T11:42:47.406Z,99594.91
2022-09-26T11:47:51.994Z,99584.16
2022-09-26T11:53:33.862Z,99572.72
2022-09-26T11:59:10.552Z,99560.41
2022-09-26T12:04:35.145Z,99554.66
2022-09-26T12:09:42.583Z,99541.09
2022-09-26T12:15:01.032Z,99524.22
2022-09-26T12:20:23.038Z,99525.16
2022-09-26T12:25:37.481Z,99522.72
2022-09-26T12:30:58.231Z,99510.09
2022-09-26T12:36:05.761Z,99490.47
2022-09-26T12:41:13.216Z,99500.97
2022-09-26T12:46:31.294Z,99492.97
2022-09-26T12:51:42.922Z,99484.41
2022-09-26T12:56:50.339Z,99483.28
2022-09-26T13:02:21.030Z,99478.75
2022-09-26T13:07:40.663Z,99476.13
2022-09-26T13:12:55.084Z,99475.16
2022-09-26T13:18:04.464Z,99469.91
2022-09-26T13:23:26.184Z,99466.25
2022-09-26T13:28:47.542Z,99463.28
2022-09-26T13:34:09.098Z,99451.94
2022-09-26T13:39:16.269Z,99453.09
2022-09-26T13:44:28.107Z,99435.28
2022-09-26T13:49:32.623Z,99436.19
2022-09-26T13:54:55.151Z,99427.50
2022-09-26T13:59:56.761Z,99422.22
2022-09-26T14:05:01.058Z,99417.66
2022-09-26T14:10:02.524Z,99420.75
2022-09-26T14:15:26.003Z,99412.63
2022-09-26T14:20:33.872Z,99414.94
2022-09-26T14:25:44.582Z,99399.34
2022-09-26T14:31:23.400Z,99386.19
2022-09-26T14:36:33.299Z,99381.97
2022-09-26T14:41:36.104Z,99375.81
2022-09-26T14:46:41.275Z,99361.25
2022-09-26T14:51:48.705Z,99362.78
2022-09-26T14:57:00.763Z,99356.25
2022-09-26T15:02:14.318Z,99341.63
2022-09-26T15:07:23.600Z,99319.94
2022-09-26T15:12:41.267Z,99321.53
2022-09-26T15:17:50.103Z,99307.91
2022-09-26T15:22:54.182Z,99303.13
2022-09-26T15:27:56.725Z,99295.56
2022-09-26T15:33:00.252Z,99288.03
2022-09-26T15:38:09.372Z,99272.81
2022-09-26T15:43:18.991Z,99268.59
2022-09-26T15:48:20.499Z,99270.97
2022-09-26T15:53:40.096Z,99261.50
2022-09-26T15:58:51.353Z,99257.25
2022-09-26T16:03:52.833Z,99249.53
2022-09-26T16:09:23.171Z,99238.09
2022-09-26T16:14:31.059Z,99245.97
2022-09-26T16:19:34.909Z,99237.75
2022-09-26T16:24:36.627Z,99237.41
2022-09-26T16:29:38.198Z,99225.22
2022-09-26T16:34:39.790Z,99218.13
2022-09-26T16:39:41.449Z,99209.81
2022-09-26T16:44:51.874Z,99215.63
2022-09-26T16:49:53.416Z,99197.72
2022-09-26T16:54:56.901Z,99196.25
2022-09-26T17:00:01.746Z,99179.22
2022-09-26T17:05:03.313Z,99192.81
2022-09-26T17:10:05.291Z,99180.00
2022-09-26T17:15:09.106Z,99183.47
2022-09-26T17:20:13.975Z,99168.63
2022-09-26T17:25:16.150Z,99167.25
2022-09-26T17:30:19.182Z,99153.97
2022-09-26T17:35:31.218Z,99155.81
2022-09-26T17:40:33.425Z,99149.66
2022-09-26T17:45:49.315Z,99144.88
2022-09-26T17:50:51.255Z,99141.66
2022-09-26T17:55:52.881Z,99136.88
2022-09-26T18:00:54.634Z,99129.94
2022-09-26T18:05:56.415Z,99125.59
2022-09-26T18:11:02.224Z,99119.44
2022-09-26T18:16:04.046Z,99117.81
2022-09-26T18:21:09.140Z,99103.91
2022-09-26T18:26:25.867Z,99091.00
2022-09-26T18:31:33.033Z,99094.69
2022-09-26T18:36:34.752Z,99086.09
2022-09-26T18:41:37.649Z,99087.69
2022-09-26T18:46:39.415Z,99081.75
2022-09-26T18:51:41.627Z,99090.88
2022-09-26T18:56:43.347Z,99076.28
2022-09-26T19:01:45.167Z,99082.41
2022-09-26T19:06:52.051Z,99077.63
2022-09-26T19:11:53.519Z,99080.50
2022-09-26T19:16:55.962Z,99073.41
2022-09-26T19:22:00.719Z,99081.28
2022-09-26T19:27:06.830Z,99073.63
2022-09-26T19:32:18.944Z,99066.34
2022-09-26T19:37:20.805Z,99067.34
2022-09-26T19:42:22.509Z,99064.03
2022-09-26T19:47:24.178Z,99062.09
2022-09-26T19:52:25.845Z,99066.06
2022-09-26T19:57:27.721Z,99066.75
2022-09-26T20:02:32.157Z,99058.19
2022-09-26T20:07:34.005Z,99060.94
2022-09-26T20:12:35.649Z,99060.16
2022-09-26T20:17:37.683Z,99053.97
2022-09-26T20:22:39.978Z,99049.72
2022-09-26T20:27:41.606Z,99059.56
2022-09-26T20:32:43.257Z,99049.94
2022-09-26T20:37:44.941Z,99040.56
2022-09-26T20:42:50.845Z,99035.41
2022-09-26T20:47:52.491Z,99040.56
2022-09-26T20:52:54.077Z,99045.94
2022-09-26T20:57:55.745Z,99034.31
2022-09-26T21:02:57.431Z,99039.00
2022-09-26T21:08:00.500Z,99023.38
2022-09-26T21:13:02.484Z,99024.50
2022-09-26T21:18:04.386Z,99019.50
2022-09-26T21:23:08.602Z,99024.72
2022-09-26T21:28:24.553Z,99026.19
2022-09-26T21:33:26.499Z,99019.91
2022-09-26T21:38:28.303Z,99019.91
2022-09-26T21:43:36.510Z,99011.25
2022-09-26T21:48:38.356Z,99005.09
2022-09-26T21:53:55.542Z,99008.88
2022-09-26T21:58:57.857Z,99002.56
2022-09-26T22:03:59.483Z,98991.34
2022-09-26T22:09:01.242Z,98988.81
2022-09-26T22:14:04.415Z,98996.31
2022-09-26T22:19:06.134Z,98985.41
2022-09-26T22:24:07.748Z,98987.06
2022-09-26T22:29:09.391Z,98981.16
2022-09-26T22:34:11.091Z,98979.84
2022-09-26T22:39:12.746Z,98985.03
2022-09-26T22:44:14.393Z,98976.63
2022-09-26T22:49:16.047Z,98987.31
2022-09-26T22:54:17.808Z,98979.72
2022-09-26T22:59:19.538Z,98983.19
2022-09-26T23:04:21.132Z,98974.66
2022-09-26T23:09:22.754Z,98980.13
2022-09-26T23:14:24.348Z,98966.66
2022-09-26T23:19:25.996Z,98967.09
2022-09-26T23:24:27.746Z,98953.19
2022-09-26T23:29:29.373Z,98950.34
2022-09-26T23:34:30.957Z,98963.69
2022-09-26T23:39:32.618Z,98956.69
2022-09-26T23:44:34.319Z,98966.44
2022-09-26T23:49:35.965Z,98965.66
2022-09-26T23:54:37.710Z,98975.91
2022-09-26T23:59:39.337Z,98979.56
